Time;durP1;ratioP1;P1;durP2;ratioP2;P2;SDS_P1;SDS_P2;PMS_P1;PMS_P2;Temp;Humidity;BMP_temperature;BMP_pressure;BME280_temperature;BME280_humidity;BME280_pressure;Samples;Min_cycle;Max_cycle;Signal;HPM_P1;HPM_P2
2021/01/28 00:00:11;;;;;;;7.95;3.40;;;;;;;;;;5086047;28;20428;-72
2021/01/28 00:02:42;;;;;;;8.52;3.17;;;;;;;;;;5084427;28;20067;-75
2021/01/28 00:05:09;;;;;;;14.82;3.38;;;;;;;;;;5084662;28;20336;-72
2021/01/28 00:07:36;;;;;;;6.40;2.92;;;;;;;;;;5085339;28;20043;-72
2021/01/28 00:10:03;;;;;;;8.20;2.85;;;;;;;;;;5086214;28;20082;-71
2021/01/28 00:12:29;;;;;;;7.07;3.40;;;;;;;;;;5084097;28;20419;-72
2021/01/28 00:14:55;;;;;;;6.03;3.08;;;;;;;;;;5084558;28;20059;-72
2021/01/28 00:17:22;;;;;;;8.90;2.83;;;;;;;;;;5084148;28;20043;-73
2021/01/28 00:19:49;;;;;;;6.63;3.08;;;;;;;;;;5084411;28;20464;-71
2021/01/28 00:22:15;;;;;;;7.63;3.33;;;;;;;;;;5089354;28;20066;-71
2021/01/28 00:24:41;;;;;;;7.57;3.42;;;;;;;;;;5088565;28;20908;-72
2021/01/28 00:27:08;;;;;;;5.82;2.90;;;;;;;;;;5089382;28;20048;-72
2021/01/28 00:29:34;;;;;;;9.57;2.97;;;;;;;;;;5088438;28;20040;-72
2021/01/28 00:32:00;;;;;;;6.85;2.97;;;;;;;;;;5089344;28;20074;-78
2021/01/28 00:34:27;;;;;;;6.20;2.88;;;;;;;;;;5088675;28;20047;-73
2021/01/28 00:36:53;;;;;;;6.07;3.08;;;;;;;;;;5088387;28;20487;-74
2021/01/28 00:39:19;;;;;;;7.45;2.90;;;;;;;;;;5088518;28;21476;-74
2021/01/28 00:41:45;;;;;;;4.85;2.50;;;;;;;;;;5091084;28;20225;-73
2021/01/28 00:44:12;;;;;;;6.50;2.90;;;;;;;;;;5090627;28;20048;-74
2021/01/28 00:46:38;;;;;;;8.88;2.95;;;;;;;;;;5086651;28;20060;-75
2021/01/28 00:49:06;;;;;;;6.82;2.67;;;;;;;;;;5087503;28;20044;-74
2021/01/28 00:51:32;;;;;;;5.18;2.50;;;;;;;;;;5089718;28;20137;-76
2021/01/28 00:53:59;;;;;;;5.70;2.40;;;;;;;;;;5088455;28;20131;-74
2021/01/28 00:56:25;;;;;;;5.30;2.30;;;;;;;;;;5090155;28;20040;-76
2021/01/28 00:58:52;;;;;;;8.80;2.50;;;;;;;;;;5090653;28;20039;-73
2021/01/28 01:01:18;;;;;;;5.00;2.20;;;;;;;;;;5087432;28;20044;-72
2021/01/28 01:03:45;;;;;;;5.10;2.90;;;;;;;;;;5088929;28;20085;-76
2021/01/28 01:06:11;;;;;;;7.57;2.22;;;;;;;;;;5089481;28;20486;-73
2021/01/28 01:08:37;;;;;;;6.22;2.15;;;;;;;;;;5088770;28;20051;-72
2021/01/28 01:11:05;;;;;;;4.07;2.13;;;;;;;;;;5086542;28;20085;-74
2021/01/28 01:13:34;;;;;;;3.50;2.10;;;;;;;;;;5086929;28;20431;-77
2021/01/28 01:16:00;;;;;;;3.95;1.88;;;;;;;;;;5084508;28;20404;-74
2021/01/28 01:18:28;;;;;;;6.95;2.30;;;;;;;;;;5086735;28;20071;-75
2021/01/28 01:20:55;;;;;;;5.07;1.88;;;;;;;;;;5087990;28;20056;-73
2021/01/28 01:23:21;;;;;;;7.47;2.58;;;;;;;;;;5086995;28;20728;-77
2021/01/28 01:25:48;;;;;;;5.50;2.22;;;;;;;;;;5089254;28;20048;-76
2021/01/28 01:28:15;;;;;;;6.20;2.15;;;;;;;;;;5088182;28;20036;-76
2021/01/28 01:30:41;;;;;;;4.55;2.08;;;;;;;;;;5088794;28;20040;-77
2021/01/28 01:33:07;;;;;;;6.05;2.17;;;;;;;;;;5086788;28;20454;-76
2021/01/28 01:35:34;;;;;;;5.80;2.30;;;;;;;;;;5089097;28;20055;-76
2021/01/28 01:38:01;;;;;;;4.30;1.90;;;;;;;;;;5089091;28;20040;-75
2021/01/28 01:40:31;;;;;;;3.60;1.77;;;;;;;;;;5087700;28;20117;-75
2021/01/28 01:42:57;;;;;;;8.15;2.13;;;;;;;;;;5087921;28;20082;-76
2021/01/28 01:45:27;;;;;;;5.10;2.05;;;;;;;;;;5087705;28;20059;-74
2021/01/28 01:47:55;;;;;;;4.03;1.70;;;;;;;;;;5088285;28;20052;-74
2021/01/28 01:50:29;;;;;;;4.25;2.40;;;;;;;;;;5086299;28;20047;-75
2021/01/28 01:52:57;;;;;;;5.55;2.05;;;;;;;;;;5088392;28;20486;-74
2021/01/28 01:55:23;;;;;;;7.65;2.40;;;;;;;;;;5089294;28;20428;-73
2021/01/28 01:57:49;;;;;;;3.40;1.80;;;;;;;;;;5087999;28;20044;-74
2021/01/28 02:00:18;;;;;;;4.32;1.90;;;;;;;;;;5089245;28;20094;-73
2021/01/28 02:02:53;;;;;;;2.70;1.75;;;;;;;;;;5087143;28;20054;-76
2021/01/28 02:05:26;;;;;;;5.13;2.00;;;;;;;;;;5089277;28;20036;-74
2021/01/28 02:07:53;;;;;;;5.05;1.85;;;;;;;;;;5094342;28;20040;-72
2021/01/28 02:10:19;;;;;;;3.38;2.00;;;;;;;;;;5086266;28;20138;-76
2021/01/28 02:12:46;;;;;;;3.72;1.80;;;;;;;;;;5088780;28;20051;-73
2021/01/28 02:15:13;;;;;;;3.85;2.05;;;;;;;;;;5088187;28;20040;-74
2021/01/28 02:17:41;;;;;;;3.35;1.85;;;;;;;;;;5085693;28;20112;-76
2021/01/28 02:20:19;;;;;;;4.55;2.05;;;;;;;;;;5085904;28;20158;-75
2021/01/28 02:22:51;;;;;;;4.32;1.65;;;;;;;;;;5085257;28;20059;-77
2021/01/28 02:25:20;;;;;;;5.78;2.08;;;;;;;;;;5085542;28;20047;-74
2021/01/28 02:27:46;;;;;;;3.58;1.60;;;;;;;;;;5086729;28;20497;-74
2021/01/28 02:30:14;;;;;;;3.78;1.55;;;;;;;;;;5087382;28;20054;-74
2021/01/28 02:32:40;;;;;;;2.95;1.48;;;;;;;;;;5085803;28;20098;-77
2021/01/28 02:35:08;;;;;;;3.13;1.92;;;;;;;;;;5086142;28;20037;-74
2021/01/28 02:37:34;;;;;;;2.55;1.60;;;;;;;;;;5086601;28;20040;-71
2021/01/28 02:40:01;;;;;;;3.20;1.65;;;;;;;;;;5086163;28;20036;-74
2021/01/28 02:42:30;;;;;;;3.10;1.80;;;;;;;;;;5085765;28;20416;-77
2021/01/28 02:44:56;;;;;;;2.97;1.80;;;;;;;;;;5088048;28;20040;-76
2021/01/28 02:47:23;;;;;;;3.78;1.70;;;;;;;;;;5085870;28;20051;-75
2021/01/28 02:49:49;;;;;;;3.67;1.77;;;;;;;;;;5083986;28;20036;-74
2021/01/28 02:52:16;;;;;;;3.42;1.88;;;;;;;;;;5085551;28;20437;-73
2021/01/28 02:54:44;;;;;;;2.10;1.10;;;;;;;;;;5087528;28;20059;-77
2021/01/28 02:57:10;;;;;;;2.58;1.70;;;;;;;;;;5085063;28;20047;-75
2021/01/28 02:59:37;;;;;;;4.10;1.50;;;;;;;;;;5084376;28;20380;-74
2021/01/28 03:02:06;;;;;;;4.43;1.60;;;;;;;;;;5085898;28;20039;-78
2021/01/28 03:04:33;;;;;;;2.97;1.63;;;;;;;;;;5086186;28;20509;-75
2021/01/28 03:06:59;;;;;;;4.47;1.70;;;;;;;;;;5083843;28;20055;-74
2021/01/28 03:09:25;;;;;;;5.10;1.70;;;;;;;;;;5085617;28;20036;-77
2021/01/28 03:11:52;;;;;;;3.60;1.60;;;;;;;;;;5086260;28;20116;-76
2021/01/28 03:14:18;;;;;;;4.00;1.50;;;;;;;;;;5084857;28;20867;-73
2021/01/28 03:16:45;;;;;;;3.10;1.55;;;;;;;;;;5085313;28;20036;-74
2021/01/28 03:19:11;;;;;;;2.38;1.30;;;;;;;;;;5086059;28;20051;-72
2021/01/28 03:21:38;;;;;;;2.47;1.63;;;;;;;;;;5084197;28;20032;-76
2021/01/28 03:24:05;;;;;;;4.43;1.52;;;;;;;;;;5085924;28;20044;-72
2021/01/28 03:26:32;;;;;;;2.67;1.30;;;;;;;;;;5085615;28;20123;-74
2021/01/28 03:28:58;;;;;;;2.47;1.48;;;;;;;;;;5086114;28;20505;-74
2021/01/28 03:31:24;;;;;;;2.10;1.38;;;;;;;;;;5085880;28;20043;-77
2021/01/28 03:33:51;;;;;;;3.38;1.75;;;;;;;;;;5086680;28;20085;-76
2021/01/28 03:36:17;;;;;;;3.45;1.50;;;;;;;;;;5085301;28;20043;-73
2021/01/28 03:38:43;;;;;;;3.22;1.40;;;;;;;;;;5087025;28;20058;-76
2021/01/28 03:41:09;;;;;;;3.03;1.75;;;;;;;;;;5085936;28;20490;-76
2021/01/28 03:43:36;;;;;;;3.00;1.52;;;;;;;;;;5085375;28;20463;-76
2021/01/28 03:46:02;;;;;;;2.10;1.52;;;;;;;;;;5084371;28;20131;-79
2021/01/28 03:48:28;;;;;;;3.55;1.35;;;;;;;;;;5084179;28;20487;-76
2021/01/28 03:50:55;;;;;;;3.00;1.55;;;;;;;;;;5086479;28;20458;-73
2021/01/28 03:53:21;;;;;;;2.90;1.33;;;;;;;;;;5085422;28;20036;-77
2021/01/28 03:55:48;;;;;;;1.55;1.17;;;;;;;;;;5088241;28;20036;-75
2021/01/28 03:58:14;;;;;;;3.38;1.45;;;;;;;;;;5090330;28;20036;-78
2021/01/28 04:00:40;;;;;;;2.42;1.27;;;;;;;;;;5090528;28;20143;-80
2021/01/28 04:03:07;;;;;;;1.77;1.17;;;;;;;;;;5087808;28;20297;-75
2021/01/28 04:05:33;;;;;;;3.00;1.45;;;;;;;;;;5090609;28;20036;-72
2021/01/28 04:08:02;;;;;;;2.63;1.30;;;;;;;;;;5089646;28;20134;-74
2021/01/28 04:10:31;;;;;;;3.05;1.48;;;;;;;;;;5087582;28;20147;-74
2021/01/28 04:12:58;;;;;;;2.72;1.58;;;;;;;;;;5088381;28;20386;-75
2021/01/28 04:15:24;;;;;;;2.15;1.23;;;;;;;;;;5088558;28;20920;-78
2021/01/28 04:17:51;;;;;;;2.55;1.38;;;;;;;;;;5088056;28;20412;-77
2021/01/28 04:20:19;;;;;;;1.50;1.15;;;;;;;;;;5088278;28;20040;-73
2021/01/28 04:22:45;;;;;;;3.03;1.30;;;;;;;;;;5089857;28;20048;-77
2021/01/28 04:25:12;;;;;;;2.05;1.30;;;;;;;;;;5088944;28;20067;-75
2021/01/28 04:27:39;;;;;;;1.52;1.10;;;;;;;;;;5090483;28;20040;-75
2021/01/28 04:30:07;;;;;;;1.17;0.90;;;;;;;;;;5090726;28;20047;-73
2021/01/28 04:32:33;;;;;;;2.35;1.30;;;;;;;;;;5088961;28;20040;-75
2021/01/28 04:34:59;;;;;;;3.83;1.58;;;;;;;;;;5090169;28;20063;-77
2021/01/28 04:37:26;;;;;;;3.45;1.35;;;;;;;;;;5089624;28;20478;-76
2021/01/28 04:39:53;;;;;;;4.82;2.05;;;;;;;;;;5089091;28;20040;-76
2021/01/28 04:42:21;;;;;;;3.15;1.38;;;;;;;;;;5088438;28;20036;-74
2021/01/28 04:44:48;;;;;;;2.90;1.55;;;;;;;;;;5088056;28;20428;-75
2021/01/28 04:47:18;;;;;;;1.40;1.08;;;;;;;;;;5089838;28;20040;-72
2021/01/28 04:49:48;;;;;;;3.60;1.60;;;;;;;;;;5088849;28;20093;-72
2021/01/28 04:52:15;;;;;;;3.60;1.30;;;;;;;;;;5098112;28;20507;-73
2021/01/28 04:54:43;;;;;;;1.88;1.25;;;;;;;;;;5090276;28;20108;-71
2021/01/28 04:57:11;;;;;;;1.10;1.00;;;;;;;;;;5088487;28;20059;-78
2021/01/28 04:59:42;;;;;;;1.63;1.20;;;;;;;;;;5087554;28;20429;-73
2021/01/28 05:02:11;;;;;;;1.65;1.08;;;;;;;;;;5089014;28;20032;-77
2021/01/28 05:04:40;;;;;;;1.55;1.15;;;;;;;;;;5087503;28;20873;-73
2021/01/28 05:07:09;;;;;;;2.53;1.17;;;;;;;;;;5086604;28;20093;-75
2021/01/28 05:09:35;;;;;;;3.17;1.77;;;;;;;;;;5088159;28;20043;-71
2021/01/28 05:12:02;;;;;;;2.05;1.30;;;;;;;;;;5090363;28;20103;-70
2021/01/28 05:14:31;;;;;;;4.05;1.55;;;;;;;;;;5087132;28;20097;-70
2021/01/28 05:16:58;;;;;;;2.83;1.50;;;;;;;;;;5088172;28;20113;-74
2021/01/28 05:19:34;;;;;;;4.05;1.40;;;;;;;;;;5085564;28;20032;-72
2021/01/28 05:22:21;;;;;;;1.73;1.33;;;;;;;;;;5087686;28;20166;-71
2021/01/28 05:24:50;;;;;;;2.13;1.30;;;;;;;;;;5087189;28;20368;-74
2021/01/28 05:27:18;;;;;;;3.13;1.48;;;;;;;;;;5086844;28;20032;-74
2021/01/28 05:29:45;;;;;;;2.30;1.30;;;;;;;;;;5089105;28;20083;-76
2021/01/28 05:32:15;;;;;;;2.65;1.50;;;;;;;;;;5088933;28;20051;-71
2021/01/28 05:34:41;;;;;;;2.28;1.30;;;;;;;;;;5087808;28;20523;-71
2021/01/28 05:37:14;;;;;;;2.45;1.17;;;;;;;;;;5086928;28;20158;-76
2021/01/28 05:39:41;;;;;;;1.60;1.30;;;;;;;;;;5086389;28;20047;-74
2021/01/28 05:42:13;;;;;;;2.70;1.60;;;;;;;;;;5087302;28;20036;-76
2021/01/28 05:44:39;;;;;;;1.40;1.20;;;;;;;;;;5086619;28;20059;-69
2021/01/28 05:47:08;;;;;;;2.35;1.50;;;;;;;;;;5087520;28;20044;-73
2021/01/28 05:49:36;;;;;;;1.70;1.10;;;;;;;;;;5086589;28;20044;-73
2021/01/28 05:52:13;;;;;;;3.85;1.50;;;;;;;;;;5087700;28;20108;-70
2021/01/28 05:54:39;;;;;;;1.33;1.02;;;;;;;;;;5088544;28;20109;-74
2021/01/28 05:57:11;;;;;;;2.95;1.27;;;;;;;;;;5085488;28;20087;-71
2021/01/28 05:59:45;;;;;;;2.05;1.08;;;;;;;;;;5087715;28;20051;-76
2021/01/28 06:02:26;;;;;;;1.60;1.30;;;;;;;;;;5092745;28;20039;-72
2021/01/28 06:05:03;;;;;;;2.78;1.50;;;;;;;;;;5086856;28;20032;-72
2021/01/28 06:07:29;;;;;;;;;;;;;;;;;;5088173;28;20036;-72
2021/01/28 06:09:55;;;;;;;1.93;1.20;;;;;;;;;;5088350;28;20053;-71
2021/01/28 06:12:40;;;;;;;1.65;1.05;;;;;;;;;;5087473;28;20028;-73
2021/01/28 06:15:16;;;;;;;1.25;1.00;;;;;;;;;;5087243;28;20044;-71
2021/01/28 06:17:43;;;;;;;;;;;;;;;;;;5085063;28;20036;-72
2021/01/28 06:20:12;;;;;;;2.47;1.10;;;;;;;;;;5089023;28;20013;-74
2021/01/28 06:22:51;;;;;;;4.13;1.20;;;;;;;;;;5089927;28;20036;-83
2021/01/28 06:25:24;;;;;;;1.95;1.20;;;;;;;;;;5092923;28;20036;-75
2021/01/28 06:27:52;;;;;;;3.10;1.30;;;;;;;;;;5090317;28;20564;-73
2021/01/28 06:30:29;;;;;;;2.13;1.05;;;;;;;;;;5098194;28;20060;-78
2021/01/28 06:33:08;;;;;;;2.40;1.10;;;;;;;;;;5093526;28;20432;-73
2021/01/28 06:35:53;;;;;;;2.55;1.20;;;;;;;;;;5097401;28;20033;-81
2021/01/28 06:38:21;;;;;;;6.10;1.23;;;;;;;;;;5092895;28;20032;-76
2021/01/28 06:40:51;;;;;;;4.07;1.02;;;;;;;;;;5089331;28;20032;-76
2021/01/28 06:43:22;;;;;;;1.63;1.10;;;;;;;;;;5077004;28;20036;-75
2021/01/28 06:45:53;;;;;;;0.98;0.90;;;;;;;;;;5080449;28;20028;-74
2021/01/28 06:48:22;;;;;;;2.70;1.20;;;;;;;;;;5083414;28;20043;-77
2021/01/28 06:50:55;;;;;;;3.63;1.27;;;;;;;;;;5078521;28;20386;-73
2021/01/28 06:53:25;;;;;;;5.90;1.33;;;;;;;;;;5091883;28;20040;-75
2021/01/28 06:55:54;;;;;;;1.85;1.08;;;;;;;;;;5088786;28;20111;-73
2021/01/28 06:58:37;;;;;;;3.00;1.08;;;;;;;;;;5094465;28;20888;-78
2021/01/28 07:01:29;;;;;;;4.53;1.30;;;;;;;;;;5081821;28;20032;-76
2021/01/28 07:03:59;;;;;;;3.00;1.20;;;;;;;;;;5073458;28;20329;-72
2021/01/28 07:06:32;;;;;;;5.65;1.35;;;;;;;;;;5072567;28;20158;-77
2021/01/28 07:09:11;;;;;;;5.85;1.35;;;;;;;;;;5075885;28;20081;-74
2021/01/28 07:11:40;;;;;;;2.47;1.17;;;;;;;;;;5076177;28;20044;-75
2021/01/28 07:14:07;;;;;;;1.83;1.08;;;;;;;;;;5077247;28;20444;-71
2021/01/28 07:16:39;;;;;;;2.65;1.10;;;;;;;;;;5077040;28;20103;-76
2021/01/28 07:19:08;;;;;;;2.20;1.25;;;;;;;;;;5077704;28;20105;-74
2021/01/28 07:21:38;;;;;;;1.67;1.10;;;;;;;;;;5081792;28;20036;-73
2021/01/28 07:24:04;;;;;;;3.72;1.10;;;;;;;;;;5087866;28;20136;-75
2021/01/28 07:26:45;;;;;;;4.07;1.20;;;;;;;;;;5084666;28;20052;-76
2021/01/28 07:29:30;;;;;;;5.50;1.10;;;;;;;;;;5081651;28;20044;-75
2021/01/28 07:32:01;;;;;;;2.90;1.10;;;;;;;;;;5076527;28;20353;-77
2021/01/28 07:34:27;;;;;;;7.95;1.75;;;;;;;;;;5077336;28;20056;-78
2021/01/28 07:36:58;;;;;;;2.75;1.60;;;;;;;;;;5079085;28;20464;-77
2021/01/28 07:39:31;;;;;;;4.40;1.10;;;;;;;;;;5080748;28;20120;-77
2021/01/28 07:42:00;;;;;;;3.40;1.50;;;;;;;;;;5081849;28;20060;-79
2021/01/28 07:44:29;;;;;;;5.07;1.27;;;;;;;;;;5079387;28;20083;-83
2021/01/28 07:46:58;;;;;;;7.32;1.77;;;;;;;;;;5065354;28;20063;-76
2021/01/28 07:49:26;;;;;;;5.35;1.30;;;;;;;;;;5082642;28;20044;-75
2021/01/28 07:52:12;;;;;;;4.88;1.33;;;;;;;;;;5067357;28;21455;-79
2021/01/28 07:54:54;;;;;;;3.70;1.30;;;;;;;;;;5083915;28;20048;-78
2021/01/28 07:57:36;;;;;;;5.50;1.25;;;;;;;;;;5088700;28;20028;-77
2021/01/28 08:00:06;;;;;;;4.70;1.20;;;;;;;;;;5075773;28;20044;-79
2021/01/28 08:02:35;;;;;;;3.95;1.52;;;;;;;;;;5075959;28;20059;-78
2021/01/28 08:05:02;;;;;;;6.10;1.33;;;;;;;;;;5086325;28;20032;-75
2021/01/28 08:07:30;;;;;;;4.30;1.42;;;;;;;;;;5084824;28;20456;-77
2021/01/28 08:09:59;;;;;;;7.53;1.85;;;;;;;;;;5068609;28;20123;-74
2021/01/28 08:12:29;;;;;;;4.30;1.20;;;;;;;;;;5082414;28;20127;-74
2021/01/28 08:14:56;;;;;;;2.15;1.10;;;;;;;;;;5087340;28;20043;-78
2021/01/28 08:17:26;;;;;;;2.60;1.20;;;;;;;;;;5083221;28;20051;-76
2021/01/28 08:20:11;;;;;;;2.85;1.27;;;;;;;;;;5086384;28;20093;-79
2021/01/28 08:22:48;;;;;;;6.50;1.40;;;;;;;;;;5081782;28;20123;-75
2021/01/28 08:25:15;;;;;;;5.15;1.10;;;;;;;;;;5086437;28;20487;-75
2021/01/28 08:27:42;;;;;;;4.72;1.80;;;;;;;;;;5065543;28;20109;-80
2021/01/28 08:30:14;;;;;;;3.03;1.08;;;;;;;;;;5085576;28;20344;-76
2021/01/28 08:32:42;;;;;;;3.40;1.40;;;;;;;;;;5085818;28;20403;-81
2021/01/28 08:35:14;;;;;;;2.28;1.10;;;;;;;;;;5085699;28;20040;-78
2021/01/28 08:37:40;;;;;;;3.88;1.38;;;;;;;;;;5084319;28;20036;-76
2021/01/28 08:40:14;;;;;;;2.90;1.60;;;;;;;;;;5087283;28;20177;-76
2021/01/28 08:42:41;;;;;;;3.22;1.17;;;;;;;;;;5087324;28;20040;-79
2021/01/28 08:45:11;;;;;;;4.03;1.30;;;;;;;;;;5089188;28;20046;-77
2021/01/28 08:47:38;;;;;;;3.30;1.27;;;;;;;;;;5087431;28;20138;-78
2021/01/28 08:50:14;;;;;;;4.43;1.75;;;;;;;;;;5089065;28;20034;-77
2021/01/28 08:52:42;;;;;;;5.53;1.50;;;;;;;;;;5094157;28;20148;-76
2021/01/28 08:55:11;;;;;;;4.20;1.48;;;;;;;;;;5090009;28;20036;-79
2021/01/28 08:57:38;;;;;;;5.55;1.30;;;;;;;;;;5086371;28;20336;-79
2021/01/28 09:00:08;;;;;;;3.47;1.20;;;;;;;;;;5090277;28;20038;-76
2021/01/28 09:02:37;;;;;;;4.85;1.60;;;;;;;;;;5087769;28;20046;-80
2021/01/28 09:05:07;;;;;;;1.67;1.23;;;;;;;;;;5087751;28;20043;-79
2021/01/28 09:07:44;;;;;;;3.50;1.35;;;;;;;;;;5086278;28;20463;-79
2021/01/28 09:10:11;;;;;;;4.63;1.65;;;;;;;;;;5089199;28;20051;-76
2021/01/28 09:12:38;;;;;;;5.35;1.50;;;;;;;;;;5086668;28;20556;-78
2021/01/28 09:15:10;;;;;;;3.65;1.73;;;;;;;;;;5071218;28;20081;-80
2021/01/28 09:17:37;;;;;;;2.90;1.10;;;;;;;;;;5087350;28;20725;-79
2021/01/28 09:20:04;;;;;;;2.95;1.40;;;;;;;;;;5086043;28;20063;-77
2021/01/28 09:22:33;;;;;;;3.15;1.45;;;;;;;;;;5088252;28;20135;-77
2021/01/28 09:25:01;;;;;;;3.22;1.30;;;;;;;;;;5089290;28;20150;-75
2021/01/28 09:27:34;;;;;;;6.68;1.42;;;;;;;;;;5087084;28;20069;-79
2021/01/28 09:30:20;;;;;;;3.05;1.15;;;;;;;;;;5087958;28;20039;-75
2021/01/28 09:32:47;;;;;;;3.78;1.10;;;;;;;;;;5088326;28;20027;-82
2021/01/28 09:35:20;;;;;;;3.17;1.30;;;;;;;;;;5066946;28;20434;-75
2021/01/28 09:37:47;;;;;;;3.78;1.40;;;;;;;;;;5086678;28;20035;-79
2021/01/28 09:40:20;;;;;;;3.42;1.13;;;;;;;;;;5086282;28;20040;-78
2021/01/28 09:42:47;;;;;;;3.58;1.48;;;;;;;;;;5068546;28;20383;-77
2021/01/28 09:45:20;;;;;;;2.83;1.20;;;;;;;;;;5088063;28;20410;-78
2021/01/28 09:47:51;;;;;;;4.28;1.55;;;;;;;;;;5086454;28;20055;-75
2021/01/28 09:50:18;;;;;;;2.78;1.17;;;;;;;;;;5086335;28;20044;-74
2021/01/28 09:52:46;;;;;;;2.33;1.30;;;;;;;;;;5063884;28;20421;-78
2021/01/28 09:55:21;;;;;;;3.55;1.13;;;;;;;;;;5086743;28;20081;-81
2021/01/28 09:57:47;;;;;;;2.90;1.50;;;;;;;;;;5095355;28;20093;-77
2021/01/28 10:00:16;;;;;;;2.65;1.17;;;;;;;;;;5094884;28;20028;-83
2021/01/28 10:02:43;;;;;;;1.98;1.10;;;;;;;;;;5092072;28;20036;-75
2021/01/28 10:05:09;;;;;;;3.25;1.30;;;;;;;;;;5089630;28;20040;-77
2021/01/28 10:07:36;;;;;;;3.05;1.33;;;;;;;;;;5086714;28;20047;-76
2021/01/28 10:10:03;;;;;;;6.05;1.50;;;;;;;;;;5084778;28;20115;-84
2021/01/28 10:12:30;;;;;;;8.48;1.70;;;;;;;;;;5086451;28;20413;-80
2021/01/28 10:14:56;;;;;;;9.18;1.80;;;;;;;;;;5087887;28;20144;-76
2021/01/28 10:17:23;;;;;;;4.05;1.40;;;;;;;;;;5085270;28;20494;-78
2021/01/28 10:19:49;;;;;;;6.93;1.33;;;;;;;;;;5086245;28;20047;-78
2021/01/28 10:22:17;;;;;;;11.98;1.65;;;;;;;;;;5086474;28;20118;-80
2021/01/28 10:24:44;;;;;;;6.70;1.30;;;;;;;;;;5091448;28;20056;-81
2021/01/28 10:27:10;;;;;;;12.38;1.70;;;;;;;;;;5081490;28;20036;-78
2021/01/28 10:29:37;;;;;;;6.78;1.50;;;;;;;;;;5076190;28;20044;-82
2021/01/28 10:32:07;;;;;;;7.05;1.38;;;;;;;;;;5094881;28;20063;-77
2021/01/28 10:34:34;;;;;;;16.00;1.77;;;;;;;;;;5090849;28;20091;-78
2021/01/28 10:37:00;;;;;;;5.47;1.40;;;;;;;;;;5083435;28;20191;-76
2021/01/28 10:39:26;;;;;;;4.68;1.20;;;;;;;;;;5082026;28;20032;-79
2021/01/28 10:41:53;;;;;;;3.28;1.27;;;;;;;;;;5081249;28;20070;-80
2021/01/28 10:44:20;;;;;;;7.72;1.50;;;;;;;;;;5082605;28;20318;-79
2021/01/28 10:46:47;;;;;;;5.80;1.35;;;;;;;;;;5084107;28;20048;-74
2021/01/28 10:49:14;;;;;;;4.47;1.77;;;;;;;;;;5081367;28;20524;-79
2021/01/28 10:51:41;;;;;;;2.20;0.93;;;;;;;;;;5079276;28;20025;-76
2021/01/28 10:54:08;;;;;;;2.70;1.13;;;;;;;;;;5081706;28;20048;-77
2021/01/28 10:56:34;;;;;;;6.28;1.35;;;;;;;;;;5082184;28;20039;-81
2021/01/28 10:59:00;;;;;;;2.35;1.10;;;;;;;;;;5083860;28;20028;-77
2021/01/28 11:01:27;;;;;;;4.57;1.23;;;;;;;;;;5084454;28;20039;-79
2021/01/28 11:03:53;;;;;;;4.88;1.88;;;;;;;;;;5082473;28;20043;-77
2021/01/28 11:06:20;;;;;;;36.50;10.70;;;;;;;;;;5080333;28;20043;-74
2021/01/28 11:08:46;;;;;;;40.88;11.82;;;;;;;;;;5082261;28;20060;-76
2021/01/28 11:11:13;;;;;;;22.33;7.00;;;;;;;;;;5085621;28;20097;-80
2021/01/28 11:13:39;;;;;;;15.55;4.82;;;;;;;;;;5089582;28;20411;-75
2021/01/28 11:16:06;;;;;;;15.25;4.32;;;;;;;;;;5075357;28;20028;-74
2021/01/28 11:18:32;;;;;;;10.45;4.28;;;;;;;;;;5087328;28;20063;-82
2021/01/28 11:20:58;;;;;;;10.02;3.63;;;;;;;;;;5092091;28;20035;-76
2021/01/28 11:23:25;;;;;;;10.95;3.45;;;;;;;;;;5090130;28;20122;-77
2021/01/28 11:25:51;;;;;;;11.65;4.15;;;;;;;;;;5090406;28;20040;-78
2021/01/28 11:28:17;;;;;;;14.23;3.88;;;;;;;;;;5090886;28;20071;-80
2021/01/28 11:30:44;;;;;;;12.52;3.55;;;;;;;;;;5096638;28;20036;-81
2021/01/28 11:33:11;;;;;;;10.35;3.75;;;;;;;;;;5088722;28;20028;-81
2021/01/28 11:35:38;;;;;;;9.45;3.17;;;;;;;;;;5089646;28;20139;-75
2021/01/28 11:38:06;;;;;;;9.77;3.50;;;;;;;;;;5097670;28;20429;-79
2021/01/28 11:40:33;;;;;;;7.75;2.80;;;;;;;;;;5087429;28;20086;-78
2021/01/28 11:42:59;;;;;;;7.18;3.08;;;;;;;;;;5084977;28;20399;-78
2021/01/28 11:45:27;;;;;;;9.40;3.33;;;;;;;;;;5086828;28;20055;-78
2021/01/28 11:47:54;;;;;;;7.03;3.05;;;;;;;;;;5086448;28;20060;-78
2021/01/28 11:50:21;;;;;;;7.97;3.28;;;;;;;;;;5087705;28;20048;-72
2021/01/28 11:52:48;;;;;;;8.32;3.22;;;;;;;;;;5087323;28;20040;-79
2021/01/28 11:55:15;;;;;;;7.50;3.15;;;;;;;;;;5092296;28;20032;-73
2021/01/28 11:57:41;;;;;;;9.63;3.20;;;;;;;;;;5084399;28;20032;-84
2021/01/28 12:00:09;;;;;;;12.60;3.05;;;;;;;;;;5086532;28;20059;-81
2021/01/28 12:02:35;;;;;;;8.90;2.78;;;;;;;;;;5091396;28;20040;-74
2021/01/28 12:05:02;;;;;;;6.82;3.13;;;;;;;;;;5082631;28;20059;-75
2021/01/28 12:07:28;;;;;;;7.28;2.80;;;;;;;;;;5079820;28;20040;-80
2021/01/28 12:09:55;;;;;;;5.75;2.45;;;;;;;;;;5076351;28;20041;-75
2021/01/28 12:12:21;;;;;;;9.18;2.58;;;;;;;;;;5078024;28;20432;-81
2021/01/28 12:14:47;;;;;;;5.78;2.58;;;;;;;;;;5065329;28;20113;-73
2021/01/28 12:17:14;;;;;;;6.45;2.42;;;;;;;;;;5083161;28;20116;-76
2021/01/28 12:19:40;;;;;;;9.75;2.72;;;;;;;;;;5081454;28;20055;-76
2021/01/28 12:22:07;;;;;;;8.57;2.75;;;;;;;;;;5094781;28;20139;-77
2021/01/28 12:24:33;;;;;;;6.55;2.60;;;;;;;;;;5086173;28;20171;-79
2021/01/28 12:27:00;;;;;;;11.93;2.63;;;;;;;;;;5078716;28;21471;-82
2021/01/28 12:29:27;;;;;;;7.75;2.70;;;;;;;;;;5080748;28;20089;-79
2021/01/28 12:31:53;;;;;;;9.32;2.22;;;;;;;;;;5087506;28;20389;-76
2021/01/28 12:34:21;;;;;;;7.13;2.85;;;;;;;;;;5083454;28;20491;-80
2021/01/28 12:36:48;;;;;;;4.00;2.15;;;;;;;;;;5087521;28;20131;-76
2021/01/28 12:39:15;;;;;;;10.57;2.17;;;;;;;;;;5087126;28;20032;-79
2021/01/28 12:41:42;;;;;;;6.70;2.42;;;;;;;;;;5078708;28;20566;-77
2021/01/28 12:44:08;;;;;;;6.10;2.20;;;;;;;;;;5099137;28;20036;-85
2021/01/28 12:46:34;;;;;;;10.38;2.50;;;;;;;;;;5084200;28;20062;-79
2021/01/28 12:49:01;;;;;;;7.72;2.45;;;;;;;;;;5080918;28;20045;-84
2021/01/28 12:51:27;;;;;;;4.03;1.98;;;;;;;;;;5085603;28;20039;-79
2021/01/28 12:53:54;;;;;;;10.63;2.15;;;;;;;;;;5083958;28;20143;-78
2021/01/28 12:56:20;;;;;;;8.82;2.65;;;;;;;;;;5066539;28;20073;-83
2021/01/28 12:58:46;;;;;;;8.15;2.22;;;;;;;;;;5095637;27;20395;-83
2021/01/28 13:01:13;;;;;;;5.75;2.20;;;;;;;;;;5084405;28;20063;-84
2021/01/28 13:03:40;;;;;;;8.55;2.05;;;;;;;;;;5086367;28;20052;-81
2021/01/28 13:06:06;;;;;;;6.60;2.05;;;;;;;;;;5083420;28;20071;-75
2021/01/28 13:08:32;;;;;;;4.30;2.10;;;;;;;;;;5082646;28;20070;-81
2021/01/28 13:10:59;;;;;;;5.43;1.80;;;;;;;;;;5086351;28;20875;-75
2021/01/28 13:13:25;;;;;;;4.10;2.08;;;;;;;;;;5085733;28;20205;-77
2021/01/28 13:15:51;;;;;;;5.43;1.90;;;;;;;;;;5086617;28;20036;-84
2021/01/28 13:18:18;;;;;;;4.60;1.50;;;;;;;;;;5100267;28;20055;-76
2021/01/28 13:20:44;;;;;;;5.60;2.10;;;;;;;;;;5068437;28;20047;-83
2021/01/28 13:23:14;;;;;;;5.00;2.00;;;;;;;;;;5085059;28;20052;-80
2021/01/28 13:25:41;;;;;;;5.55;1.73;;;;;;;;;;5087298;28;20162;-82
2021/01/28 13:28:07;;;;;;;3.30;1.52;;;;;;;;;;5086776;28;20458;-77
2021/01/28 13:30:34;;;;;;;6.28;1.90;;;;;;;;;;5086132;28;20040;-83
2021/01/28 13:33:01;;;;;;;7.78;2.38;;;;;;;;;;5085295;28;20036;-83
2021/01/28 13:35:28;;;;;;;4.70;1.73;;;;;;;;;;5084903;28;20036;-82
2021/01/28 13:37:57;;;;;;;3.65;2.00;;;;;;;;;;5082841;28;20135;-77
2021/01/28 13:40:24;;;;;;;5.68;2.00;;;;;;;;;;5090992;28;20044;-76
2021/01/28 13:42:51;;;;;;;10.05;1.90;;;;;;;;;;5083983;28;20110;-78
2021/01/28 13:45:18;;;;;;;4.80;1.52;;;;;;;;;;5081232;28;20451;-78
2021/01/28 13:47:45;;;;;;;4.60;2.05;;;;;;;;;;5083387;28;20036;-75
2021/01/28 13:50:14;;;;;;;8.68;1.90;;;;;;;;;;5085453;28;20047;-74
2021/01/28 13:52:40;;;;;;;13.30;2.13;;;;;;;;;;5088958;28;20391;-79
2021/01/28 13:55:08;;;;;;;9.57;2.10;;;;;;;;;;5087525;28;21530;-76
2021/01/28 13:57:34;;;;;;;4.15;2.13;;;;;;;;;;5085607;28;20089;-78
2021/01/28 14:00:00;;;;;;;7.68;2.20;;;;;;;;;;5088977;28;20090;-83
2021/01/28 14:02:27;;;;;;;7.15;1.77;;;;;;;;;;5087228;28;20135;-78
2021/01/28 14:04:53;;;;;;;9.68;2.17;;;;;;;;;;5085762;28;20104;-77
2021/01/28 14:07:19;;;;;;;4.78;1.88;;;;;;;;;;5084795;28;20078;-77
2021/01/28 14:09:46;;;;;;;7.65;1.70;;;;;;;;;;5085951;28;20119;-76
2021/01/28 14:12:12;;;;;;;3.97;1.88;;;;;;;;;;5087836;28;20044;-77
2021/01/28 14:14:39;;;;;;;7.93;2.10;;;;;;;;;;5086978;28;20116;-76
2021/01/28 14:17:05;;;;;;;3.60;1.67;;;;;;;;;;5089401;28;20039;-77
2021/01/28 14:19:31;;;;;;;3.50;1.60;;;;;;;;;;5089395;28;20040;-77
2021/01/28 14:21:58;;;;;;;4.75;1.70;;;;;;;;;;5083782;28;20131;-74
2021/01/28 14:24:25;;;;;;;4.70;1.67;;;;;;;;;;5084636;28;20046;-72
2021/01/28 14:26:51;;;;;;;4.88;1.90;;;;;;;;;;5086758;28;20910;-75
2021/01/28 14:29:17;;;;;;;4.00;1.48;;;;;;;;;;5087723;28;20035;-79
2021/01/28 14:31:44;;;;;;;4.30;1.77;;;;;;;;;;5089370;28;20035;-81
2021/01/28 14:34:10;;;;;;;4.95;1.58;;;;;;;;;;5086501;28;20494;-75
2021/01/28 14:36:37;;;;;;;4.53;1.80;;;;;;;;;;5086245;28;20060;-75
2021/01/28 14:39:04;;;;;;;4.97;1.60;;;;;;;;;;5089323;28;20035;-76
2021/01/28 14:41:30;;;;;;;4.97;1.63;;;;;;;;;;5069129;28;20036;-78
2021/01/28 14:43:57;;;;;;;5.43;1.50;;;;;;;;;;5080675;28;20044;-74
2021/01/28 14:46:23;;;;;;;5.80;1.58;;;;;;;;;;5083887;28;20518;-81
2021/01/28 14:48:49;;;;;;;2.97;1.35;;;;;;;;;;5084105;28;20056;-78